sensor_id;sensor_type;location;lat;lon;timestamp;P1;durP1;ratioP1;P2;durP2;ratioP2
37545;SDS011;23389;52.484;13.572;2023-03-13T00:00:46;18.63;;;9.13;;
37545;SDS011;23389;52.484;13.572;2023-03-13T00:03:11;18.85;;;10.55;;
37545;SDS011;23389;52.484;13.572;2023-03-13T00:05:36;19.30;;;9.65;;
37545;SDS011;23389;52.484;13.572;2023-03-13T00:08:01;20.45;;;10.63;;
37545;SDS011;23389;52.484;13.572;2023-03-13T00:10:26;19.83;;;9.98;;
37545;SDS011;23389;52.484;13.572;2023-03-13T00:12:51;23.75;;;11.18;;
37545;SDS011;23389;52.484;13.572;2023-03-13T00:15:17;16.98;;;9.57;;
37545;SDS011;23389;52.484;13.572;2023-03-13T00:17:42;17.23;;;9.63;;
37545;SDS011;23389;52.484;13.572;2023-03-13T00:20:07;21.90;;;10.27;;
37545;SDS011;23389;52.484;13.572;2023-03-13T00:22:33;20.58;;;10.20;;
37545;SDS011;23389;52.484;13.572;2023-03-13T00:24:58;19.50;;;9.35;;
37545;SDS011;23389;52.484;13.572;2023-03-13T00:27:23;19.17;;;9.35;;
37545;SDS011;23389;52.484;13.572;2023-03-13T00:29:48;19.60;;;10.15;;
37545;SDS011;23389;52.484;13.572;2023-03-13T00:32:14;20.80;;;9.75;;
37545;SDS011;23389;52.484;13.572;2023-03-13T00:34:39;24.80;;;10.32;;
37545;SDS011;23389;52.484;13.572;2023-03-13T00:37:04;19.55;;;10.15;;
37545;SDS011;23389;52.484;13.572;2023-03-13T00:39:30;16.30;;;9.82;;
37545;SDS011;23389;52.484;13.572;2023-03-13T00:41:55;21.35;;;10.40;;
37545;SDS011;23389;52.484;13.572;2023-03-13T00:44:20;22.63;;;10.55;;
37545;SDS011;23389;52.484;13.572;2023-03-13T00:46:45;29.98;;;10.75;;
37545;SDS011;23389;52.484;13.572;2023-03-13T00:49:10;17.52;;;9.82;;
37545;SDS011;23389;52.484;13.572;2023-03-13T00:51:35;20.88;;;9.35;;
37545;SDS011;23389;52.484;13.572;2023-03-13T00:54:00;18.37;;;10.00;;
37545;SDS011;23389;52.484;13.572;2023-03-13T00:56:25;23.52;;;10.23;;
37545;SDS011;23389;52.484;13.572;2023-03-13T00:58:51;24.97;;;10.67;;
37545;SDS011;23389;52.484;13.572;2023-03-13T01:01:20;23.10;;;9.75;;
37545;SDS011;23389;52.484;13.572;2023-03-13T01:03:47;24.70;;;10.40;;
37545;SDS011;23389;52.484;13.572;2023-03-13T01:06:13;22.33;;;10.30;;
37545;SDS011;23389;52.484;13.572;2023-03-13T01:08:39;25.25;;;11.93;;
37545;SDS011;23389;52.484;13.572;2023-03-13T01:11:05;24.70;;;10.93;;
37545;SDS011;23389;52.484;13.572;2023-03-13T01:13:31;26.10;;;11.43;;
37545;SDS011;23389;52.484;13.572;2023-03-13T01:15:57;21.90;;;11.60;;
37545;SDS011;23389;52.484;13.572;2023-03-13T01:18:22;22.57;;;11.13;;
37545;SDS011;23389;52.484;13.572;2023-03-13T01:20:47;20.85;;;11.35;;
37545;SDS011;23389;52.484;13.572;2023-03-13T01:23:12;21.50;;;11.40;;
37545;SDS011;23389;52.484;13.572;2023-03-13T01:25:37;25.98;;;12.13;;
37545;SDS011;23389;52.484;13.572;2023-03-13T01:28:03;23.45;;;11.65;;
37545;SDS011;23389;52.484;13.572;2023-03-13T01:30:29;24.13;;;11.68;;
37545;SDS011;23389;52.484;13.572;2023-03-13T01:32:54;23.97;;;12.90;;
37545;SDS011;23389;52.484;13.572;2023-03-13T01:35:19;25.23;;;12.43;;
37545;SDS011;23389;52.484;13.572;2023-03-13T01:37:44;24.40;;;12.43;;
37545;SDS011;23389;52.484;13.572;2023-03-13T01:40:09;23.55;;;13.05;;
37545;SDS011;23389;52.484;13.572;2023-03-13T01:42:48;25.70;;;11.77;;
37545;SDS011;23389;52.484;13.572;2023-03-13T01:47:57;22.88;;;12.63;;
37545;SDS011;23389;52.484;13.572;2023-03-13T01:50:22;23.45;;;13.20;;
37545;SDS011;23389;52.484;13.572;2023-03-13T01:52:47;21.52;;;12.13;;
37545;SDS011;23389;52.484;13.572;2023-03-13T01:55:13;21.27;;;12.73;;
37545;SDS011;23389;52.484;13.572;2023-03-13T01:57:45;19.10;;;12.30;;
37545;SDS011;23389;52.484;13.572;2023-03-13T02:00:16;23.25;;;12.82;;
37545;SDS011;23389;52.484;13.572;2023-03-13T02:02:43;20.83;;;12.82;;
37545;SDS011;23389;52.484;13.572;2023-03-13T02:05:10;23.77;;;12.50;;
37545;SDS011;23389;52.484;13.572;2023-03-13T02:07:40;21.85;;;12.43;;
37545;SDS011;23389;52.484;13.572;2023-03-13T02:10:07;22.35;;;12.40;;
37545;SDS011;23389;52.484;13.572;2023-03-13T02:12:34;24.05;;;12.77;;
37545;SDS011;23389;52.484;13.572;2023-03-13T02:15:01;19.67;;;12.35;;
37545;SDS011;23389;52.484;13.572;2023-03-13T02:17:27;18.50;;;11.20;;
37545;SDS011;23389;52.484;13.572;2023-03-13T02:19:53;21.30;;;11.80;;
37545;SDS011;23389;52.484;13.572;2023-03-13T02:27:33;21.88;;;10.15;;
37545;SDS011;23389;52.484;13.572;2023-03-13T02:29:58;17.67;;;10.38;;
37545;SDS011;23389;52.484;13.572;2023-03-13T02:32:24;21.67;;;10.50;;
37545;SDS011;23389;52.484;13.572;2023-03-13T02:34:51;18.60;;;9.82;;
37545;SDS011;23389;52.484;13.572;2023-03-13T02:37:17;16.55;;;9.80;;
37545;SDS011;23389;52.484;13.572;2023-03-13T02:39:43;20.65;;;9.65;;
37545;SDS011;23389;52.484;13.572;2023-03-13T02:42:10;15.82;;;9.38;;
37545;SDS011;23389;52.484;13.572;2023-03-13T02:44:37;19.73;;;10.10;;
37545;SDS011;23389;52.484;13.572;2023-03-13T02:47:03;20.70;;;9.35;;
37545;SDS011;23389;52.484;13.572;2023-03-13T02:49:28;17.43;;;9.67;;
37545;SDS011;23389;52.484;13.572;2023-03-13T02:51:55;18.15;;;7.97;;
37545;SDS011;23389;52.484;13.572;2023-03-13T02:54:22;15.60;;;8.10;;
37545;SDS011;23389;52.484;13.572;2023-03-13T02:56:50;19.23;;;8.15;;
37545;SDS011;23389;52.484;13.572;2023-03-13T02:59:16;15.00;;;7.47;;
37545;SDS011;23389;52.484;13.572;2023-03-13T03:01:41;17.42;;;7.78;;
37545;SDS011;23389;52.484;13.572;2023-03-13T03:04:06;17.65;;;7.80;;
37545;SDS011;23389;52.484;13.572;2023-03-13T03:06:31;21.17;;;8.73;;
37545;SDS011;23389;52.484;13.572;2023-03-13T03:08:56;15.98;;;7.28;;
37545;SDS011;23389;52.484;13.572;2023-03-13T03:11:22;15.90;;;6.97;;
37545;SDS011;23389;52.484;13.572;2023-03-13T03:13:47;15.30;;;6.18;;
37545;SDS011;23389;52.484;13.572;2023-03-13T03:16:12;13.88;;;6.22;;
37545;SDS011;23389;52.484;13.572;2023-03-13T03:18:42;12.90;;;5.53;;
37545;SDS011;23389;52.484;13.572;2023-03-13T03:21:07;13.83;;;6.27;;
37545;SDS011;23389;52.484;13.572;2023-03-13T03:23:32;17.08;;;6.07;;
37545;SDS011;23389;52.484;13.572;2023-03-13T03:25:58;17.77;;;6.28;;
37545;SDS011;23389;52.484;13.572;2023-03-13T03:28:23;17.95;;;5.60;;
37545;SDS011;23389;52.484;13.572;2023-03-13T03:30:48;17.45;;;5.53;;
37545;SDS011;23389;52.484;13.572;2023-03-13T03:33:13;18.52;;;5.38;;
37545;SDS011;23389;52.484;13.572;2023-03-13T03:35:38;15.00;;;4.60;;
37545;SDS011;23389;52.484;13.572;2023-03-13T03:38:04;14.30;;;5.03;;
37545;SDS011;23389;52.484;13.572;2023-03-13T03:40:29;14.57;;;5.00;;
37545;SDS011;23389;52.484;13.572;2023-03-13T03:42:54;14.25;;;4.57;;
37545;SDS011;23389;52.484;13.572;2023-03-13T03:45:20;15.18;;;4.97;;
37545;SDS011;23389;52.484;13.572;2023-03-13T03:47:45;19.15;;;4.97;;
37545;SDS011;23389;52.484;13.572;2023-03-13T03:50:10;17.00;;;4.93;;
37545;SDS011;23389;52.484;13.572;2023-03-13T03:52:35;16.48;;;4.85;;
37545;SDS011;23389;52.484;13.572;2023-03-13T03:55:00;15.13;;;5.03;;
37545;SDS011;23389;52.484;13.572;2023-03-13T03:57:26;16.65;;;5.35;;
37545;SDS011;23389;52.484;13.572;2023-03-13T03:59:51;14.68;;;4.68;;
37545;SDS011;23389;52.484;13.572;2023-03-13T04:02:16;18.98;;;5.53;;
37545;SDS011;23389;52.484;13.572;2023-03-13T04:04:41;14.73;;;4.35;;
37545;SDS011;23389;52.484;13.572;2023-03-13T04:07:06;15.52;;;4.63;;
37545;SDS011;23389;52.484;13.572;2023-03-13T04:09:31;17.67;;;5.35;;
37545;SDS011;23389;52.484;13.572;2023-03-13T04:11:56;16.48;;;5.28;;
37545;SDS011;23389;52.484;13.572;2023-03-13T04:14:22;15.00;;;5.15;;
37545;SDS011;23389;52.484;13.572;2023-03-13T04:16:47;15.17;;;4.70;;
37545;SDS011;23389;52.484;13.572;2023-03-13T04:19:12;21.00;;;5.25;;
37545;SDS011;23389;52.484;13.572;2023-03-13T04:21:37;22.02;;;4.70;;
37545;SDS011;23389;52.484;13.572;2023-03-13T04:24:03;16.45;;;4.57;;
37545;SDS011;23389;52.484;13.572;2023-03-13T04:26:28;18.20;;;4.63;;
37545;SDS011;23389;52.484;13.572;2023-03-13T04:28:53;19.42;;;5.20;;
37545;SDS011;23389;52.484;13.572;2023-03-13T04:31:18;10.93;;;4.05;;
37545;SDS011;23389;52.484;13.572;2023-03-13T04:33:44;19.35;;;5.15;;
37545;SDS011;23389;52.484;13.572;2023-03-13T04:36:09;16.85;;;4.35;;
37545;SDS011;23389;52.484;13.572;2023-03-13T04:38:34;21.38;;;5.28;;
37545;SDS011;23389;52.484;13.572;2023-03-13T04:40:59;16.58;;;4.45;;
37545;SDS011;23389;52.484;13.572;2023-03-13T04:43:24;14.10;;;4.70;;
37545;SDS011;23389;52.484;13.572;2023-03-13T04:45:50;18.65;;;4.47;;
37545;SDS011;23389;52.484;13.572;2023-03-13T04:48:18;19.67;;;5.13;;
37545;SDS011;23389;52.484;13.572;2023-03-13T04:50:43;14.98;;;4.90;;
37545;SDS011;23389;52.484;13.572;2023-03-13T04:53:08;20.02;;;5.22;;
37545;SDS011;23389;52.484;13.572;2023-03-13T04:55:33;21.15;;;5.03;;
37545;SDS011;23389;52.484;13.572;2023-03-13T04:57:58;22.65;;;4.40;;
37545;SDS011;23389;52.484;13.572;2023-03-13T05:00:23;19.70;;;5.63;;
37545;SDS011;23389;52.484;13.572;2023-03-13T05:02:48;17.00;;;4.70;;
37545;SDS011;23389;52.484;13.572;2023-03-13T05:05:14;12.95;;;3.80;;
37545;SDS011;23389;52.484;13.572;2023-03-13T05:07:39;18.23;;;4.80;;
37545;SDS011;23389;52.484;13.572;2023-03-13T05:10:04;15.63;;;4.68;;
37545;SDS011;23389;52.484;13.572;2023-03-13T05:12:29;21.52;;;5.00;;
37545;SDS011;23389;52.484;13.572;2023-03-13T05:14:54;13.10;;;4.40;;
37545;SDS011;23389;52.484;13.572;2023-03-13T05:17:19;16.67;;;4.90;;
37545;SDS011;23389;52.484;13.572;2023-03-13T05:19:44;13.77;;;3.92;;
37545;SDS011;23389;52.484;13.572;2023-03-13T05:22:10;17.83;;;4.68;;
37545;SDS011;23389;52.484;13.572;2023-03-13T05:24:35;17.65;;;4.65;;
37545;SDS011;23389;52.484;13.572;2023-03-13T05:27:00;18.77;;;4.88;;
37545;SDS011;23389;52.484;13.572;2023-03-13T05:29:26;16.17;;;4.75;;
37545;SDS011;23389;52.484;13.572;2023-03-13T05:31:51;18.77;;;4.97;;
37545;SDS011;23389;52.484;13.572;2023-03-13T05:34:16;19.52;;;4.75;;
37545;SDS011;23389;52.484;13.572;2023-03-13T05:36:41;19.33;;;4.20;;
37545;SDS011;23389;52.484;13.572;2023-03-13T05:39:06;18.15;;;5.10;;
37545;SDS011;23389;52.484;13.572;2023-03-13T05:41:32;24.07;;;5.00;;
37545;SDS011;23389;52.484;13.572;2023-03-13T05:43:57;20.77;;;4.90;;
37545;SDS011;23389;52.484;13.572;2023-03-13T05:46:22;23.02;;;5.10;;
37545;SDS011;23389;52.484;13.572;2023-03-13T05:48:47;22.73;;;5.00;;
37545;SDS011;23389;52.484;13.572;2023-03-13T05:51:12;18.40;;;5.00;;
37545;SDS011;23389;52.484;13.572;2023-03-13T05:53:37;18.47;;;4.93;;
37545;SDS011;23389;52.484;13.572;2023-03-13T05:56:02;18.38;;;5.15;;
37545;SDS011;23389;52.484;13.572;2023-03-13T05:58:28;18.60;;;4.93;;
37545;SDS011;23389;52.484;13.572;2023-03-13T06:00:53;16.88;;;4.43;;
37545;SDS011;23389;52.484;13.572;2023-03-13T06:03:18;24.08;;;4.97;;
37545;SDS011;23389;52.484;13.572;2023-03-13T06:05:43;19.00;;;5.05;;
37545;SDS011;23389;52.484;13.572;2023-03-13T06:08:08;19.15;;;5.15;;
37545;SDS011;23389;52.484;13.572;2023-03-13T06:10:33;22.60;;;5.53;;
37545;SDS011;23389;52.484;13.572;2023-03-13T06:12:58;17.75;;;4.80;;
37545;SDS011;23389;52.484;13.572;2023-03-13T06:15:23;23.20;;;5.55;;
37545;SDS011;23389;52.484;13.572;2023-03-13T06:17:49;23.20;;;5.72;;
37545;SDS011;23389;52.484;13.572;2023-03-13T06:20:14;24.40;;;5.63;;
37545;SDS011;23389;52.484;13.572;2023-03-13T06:22:39;18.33;;;4.88;;
37545;SDS011;23389;52.484;13.572;2023-03-13T06:25:05;28.00;;;5.65;;
37545;SDS011;23389;52.484;13.572;2023-03-13T06:27:30;18.08;;;4.90;;
37545;SDS011;23389;52.484;13.572;2023-03-13T06:29:55;18.90;;;4.57;;
37545;SDS011;23389;52.484;13.572;2023-03-13T06:32:20;24.75;;;6.38;;
37545;SDS011;23389;52.484;13.572;2023-03-13T06:34:45;17.38;;;4.72;;
37545;SDS011;23389;52.484;13.572;2023-03-13T06:37:10;18.45;;;5.18;;
37545;SDS011;23389;52.484;13.572;2023-03-13T06:39:35;18.33;;;5.33;;
37545;SDS011;23389;52.484;13.572;2023-03-13T06:42:01;20.63;;;6.27;;
37545;SDS011;23389;52.484;13.572;2023-03-13T06:44:26;15.48;;;5.38;;
37545;SDS011;23389;52.484;13.572;2023-03-13T06:46:51;17.90;;;4.60;;
37545;SDS011;23389;52.484;13.572;2023-03-13T06:49:16;16.25;;;4.43;;
37545;SDS011;23389;52.484;13.572;2023-03-13T06:51:41;18.60;;;5.33;;
37545;SDS011;23389;52.484;13.572;2023-03-13T06:54:06;22.45;;;5.38;;
37545;SDS011;23389;52.484;13.572;2023-03-13T06:56:31;19.08;;;5.05;;
37545;SDS011;23389;52.484;13.572;2023-03-13T06:58:57;14.23;;;4.67;;
37545;SDS011;23389;52.484;13.572;2023-03-13T07:01:22;18.98;;;5.45;;
37545;SDS011;23389;52.484;13.572;2023-03-13T07:03:47;23.55;;;5.43;;
37545;SDS011;23389;52.484;13.572;2023-03-13T07:06:13;18.27;;;5.15;;
37545;SDS011;23389;52.484;13.572;2023-03-13T07:08:38;20.30;;;5.13;;
37545;SDS011;23389;52.484;13.572;2023-03-13T07:11:04;18.85;;;5.18;;
37545;SDS011;23389;52.484;13.572;2023-03-13T07:13:30;19.15;;;5.28;;
37545;SDS011;23389;52.484;13.572;2023-03-13T07:15:58;15.13;;;4.95;;
37545;SDS011;23389;52.484;13.572;2023-03-13T07:18:23;18.23;;;5.93;;
37545;SDS011;23389;52.484;13.572;2023-03-13T07:20:52;21.33;;;5.05;;
37545;SDS011;23389;52.484;13.572;2023-03-13T07:23:18;14.07;;;5.05;;
37545;SDS011;23389;52.484;13.572;2023-03-13T07:25:43;18.13;;;4.57;;
37545;SDS011;23389;52.484;13.572;2023-03-13T07:28:08;24.30;;;5.50;;
37545;SDS011;23389;52.484;13.572;2023-03-13T07:30:33;18.80;;;5.65;;
37545;SDS011;23389;52.484;13.572;2023-03-13T07:32:58;28.38;;;5.10;;
37545;SDS011;23389;52.484;13.572;2023-03-13T07:35:23;19.83;;;5.15;;
37545;SDS011;23389;52.484;13.572;2023-03-13T07:37:48;19.08;;;4.40;;
37545;SDS011;23389;52.484;13.572;2023-03-13T07:40:14;18.90;;;4.32;;
37545;SDS011;23389;52.484;13.572;2023-03-13T07:42:39;23.60;;;5.07;;
37545;SDS011;23389;52.484;13.572;2023-03-13T07:45:05;17.33;;;4.75;;
37545;SDS011;23389;52.484;13.572;2023-03-13T07:47:32;18.27;;;4.68;;
37545;SDS011;23389;52.484;13.572;2023-03-13T07:49:57;19.90;;;5.28;;
37545;SDS011;23389;52.484;13.572;2023-03-13T07:52:22;24.50;;;5.75;;
37545;SDS011;23389;52.484;13.572;2023-03-13T07:54:48;15.57;;;4.57;;
37545;SDS011;23389;52.484;13.572;2023-03-13T07:57:13;22.55;;;4.80;;
37545;SDS011;23389;52.484;13.572;2023-03-13T07:59:38;19.65;;;4.85;;
37545;SDS011;23389;52.484;13.572;2023-03-13T08:02:03;19.50;;;5.07;;
37545;SDS011;23389;52.484;13.572;2023-03-13T08:04:28;20.25;;;5.05;;
37545;SDS011;23389;52.484;13.572;2023-03-13T08:06:53;25.77;;;5.43;;
37545;SDS011;23389;52.484;13.572;2023-03-13T08:09:19;24.65;;;5.00;;
37545;SDS011;23389;52.484;13.572;2023-03-13T08:11:44;19.25;;;4.72;;
37545;SDS011;23389;52.484;13.572;2023-03-13T08:14:09;21.00;;;5.73;;
37545;SDS011;23389;52.484;13.572;2023-03-13T08:16:34;21.27;;;4.57;;
37545;SDS011;23389;52.484;13.572;2023-03-13T08:19:00;18.20;;;4.68;;
37545;SDS011;23389;52.484;13.572;2023-03-13T08:21:26;16.00;;;4.70;;
37545;SDS011;23389;52.484;13.572;2023-03-13T08:23:52;18.17;;;4.90;;
37545;SDS011;23389;52.484;13.572;2023-03-13T08:26:18;18.38;;;4.75;;
37545;SDS011;23389;52.484;13.572;2023-03-13T08:28:44;19.33;;;4.65;;
37545;SDS011;23389;52.484;13.572;2023-03-13T08:31:11;20.08;;;4.90;;
37545;SDS011;23389;52.484;13.572;2023-03-13T08:33:37;14.70;;;4.43;;
37545;SDS011;23389;52.484;13.572;2023-03-13T08:36:09;17.55;;;4.60;;
37545;SDS011;23389;52.484;13.572;2023-03-13T08:38:35;22.92;;;4.88;;
37545;SDS011;23389;52.484;13.572;2023-03-13T08:41:00;16.80;;;4.43;;
37545;SDS011;23389;52.484;13.572;2023-03-13T08:43:25;18.38;;;5.03;;
37545;SDS011;23389;52.484;13.572;2023-03-13T08:45:54;14.73;;;4.60;;
37545;SDS011;23389;52.484;13.572;2023-03-13T08:48:20;18.65;;;5.38;;
37545;SDS011;23389;52.484;13.572;2023-03-13T08:50:45;15.00;;;3.92;;
37545;SDS011;23389;52.484;13.572;2023-03-13T08:53:10;16.95;;;4.30;;
37545;SDS011;23389;52.484;13.572;2023-03-13T08:55:35;12.55;;;3.83;;
37545;SDS011;23389;52.484;13.572;2023-03-13T08:58:00;16.48;;;4.97;;
37545;SDS011;23389;52.484;13.572;2023-03-13T09:00:25;20.10;;;4.82;;
37545;SDS011;23389;52.484;13.572;2023-03-13T09:02:50;13.77;;;4.10;;
37545;SDS011;23389;52.484;13.572;2023-03-13T09:05:15;16.88;;;4.60;;
37545;SDS011;23389;52.484;13.572;2023-03-13T09:07:40;16.93;;;4.33;;
37545;SDS011;23389;52.484;13.572;2023-03-13T09:10:06;16.02;;;4.88;;
37545;SDS011;23389;52.484;13.572;2023-03-13T09:12:31;21.05;;;4.70;;
37545;SDS011;23389;52.484;13.572;2023-03-13T09:14:56;14.38;;;4.57;;
37545;SDS011;23389;52.484;13.572;2023-03-13T09:17:21;13.60;;;4.32;;
37545;SDS011;23389;52.484;13.572;2023-03-13T09:19:46;17.08;;;4.18;;
37545;SDS011;23389;52.484;13.572;2023-03-13T09:22:11;16.70;;;3.83;;
37545;SDS011;23389;52.484;13.572;2023-03-13T09:24:37;15.77;;;4.95;;
37545;SDS011;23389;52.484;13.572;2023-03-13T09:27:02;12.50;;;4.10;;
37545;SDS011;23389;52.484;13.572;2023-03-13T09:29:27;11.63;;;3.70;;
37545;SDS011;23389;52.484;13.572;2023-03-13T09:31:52;12.60;;;4.38;;
37545;SDS011;23389;52.484;13.572;2023-03-13T09:34:17;14.93;;;4.00;;
37545;SDS011;23389;52.484;13.572;2023-03-13T09:36:42;13.85;;;3.72;;
37545;SDS011;23389;52.484;13.572;2023-03-13T09:39:07;15.95;;;4.28;;
37545;SDS011;23389;52.484;13.572;2023-03-13T09:41:34;15.90;;;3.78;;
37545;SDS011;23389;52.484;13.572;2023-03-13T09:46:34;10.80;;;3.47;;
37545;SDS011;23389;52.484;13.572;2023-03-13T09:49:47;11.57;;;2.83;;
37545;SDS011;23389;52.484;13.572;2023-03-13T09:51:46;13.15;;;3.80;;
37545;SDS011;23389;52.484;13.572;2023-03-13T09:54:19;17.30;;;3.85;;
37545;SDS011;23389;52.484;13.572;2023-03-13T09:56:49;13.85;;;3.75;;
37545;SDS011;23389;52.484;13.572;2023-03-13T09:59:21;12.93;;;3.50;;
37545;SDS011;23389;52.484;13.572;2023-03-13T10:01:48;10.15;;;3.13;;
37545;SDS011;23389;52.484;13.572;2023-03-13T10:06:45;11.77;;;3.17;;
37545;SDS011;23389;52.484;13.572;2023-03-13T10:09:15;14.07;;;3.47;;
37545;SDS011;23389;52.484;13.572;2023-03-13T10:11:42;11.15;;;3.22;;
37545;SDS011;23389;52.484;13.572;2023-03-13T10:14:12;14.00;;;3.28;;
37545;SDS011;23389;52.484;13.572;2023-03-13T10:16:50;11.60;;;2.88;;
37545;SDS011;23389;52.484;13.572;2023-03-13T10:19:17;11.73;;;2.70;;
37545;SDS011;23389;52.484;13.572;2023-03-13T10:21:43;12.15;;;3.55;;
37545;SDS011;23389;52.484;13.572;2023-03-13T10:26:35;13.63;;;3.28;;
37545;SDS011;23389;52.484;13.572;2023-03-13T10:29:01;9.55;;;3.00;;
37545;SDS011;23389;52.484;13.572;2023-03-13T10:31:35;12.27;;;2.45;;
37545;SDS011;23389;52.484;13.572;2023-03-13T10:34:04;10.57;;;3.20;;
37545;SDS011;23389;52.484;13.572;2023-03-13T10:36:30;8.00;;;2.50;;
37545;SDS011;23389;52.484;13.572;2023-03-13T10:39:03;9.30;;;3.35;;
37545;SDS011;23389;52.484;13.572;2023-03-13T10:41:33;10.18;;;2.85;;
37545;SDS011;23389;52.484;13.572;2023-03-13T10:44:01;9.30;;;2.45;;
37545;SDS011;23389;52.484;13.572;2023-03-13T10:46:28;12.98;;;3.25;;
37545;SDS011;23389;52.484;13.572;2023-03-13T10:48:54;10.45;;;2.80;;
37545;SDS011;23389;52.484;13.572;2023-03-13T10:51:20;7.93;;;2.45;;
37545;SDS011;23389;52.484;13.572;2023-03-13T10:53:46;11.55;;;2.63;;
37545;SDS011;23389;52.484;13.572;2023-03-13T10:56:13;7.72;;;2.20;;
37545;SDS011;23389;52.484;13.572;2023-03-13T10:58:42;9.15;;;2.63;;
37545;SDS011;23389;52.484;13.572;2023-03-13T11:01:09;9.10;;;2.33;;
37545;SDS011;23389;52.484;13.572;2023-03-13T11:03:38;8.45;;;2.00;;
37545;SDS011;23389;52.484;13.572;2023-03-13T11:06:04;10.33;;;2.50;;
37545;SDS011;23389;52.484;13.572;2023-03-13T11:08:33;5.13;;;1.73;;
37545;SDS011;23389;52.484;13.572;2023-03-13T11:11:00;8.05;;;2.03;;
37545;SDS011;23389;52.484;13.572;2023-03-13T11:13:29;8.52;;;2.00;;
37545;SDS011;23389;52.484;13.572;2023-03-13T11:15:59;6.07;;;1.80;;
37545;SDS011;23389;52.484;13.572;2023-03-13T11:18:38;7.38;;;1.83;;
37545;SDS011;23389;52.484;13.572;2023-03-13T11:21:05;6.18;;;1.88;;
37545;SDS011;23389;52.484;13.572;2023-03-13T11:23:33;5.65;;;1.75;;
37545;SDS011;23389;52.484;13.572;2023-03-13T11:26:03;4.82;;;1.60;;
37545;SDS011;23389;52.484;13.572;2023-03-13T11:31:21;4.90;;;1.50;;
37545;SDS011;23389;52.484;13.572;2023-03-13T11:36:25;5.15;;;1.50;;
37545;SDS011;23389;52.484;13.572;2023-03-13T11:39:13;4.90;;;1.50;;
37545;SDS011;23389;52.484;13.572;2023-03-13T11:44:28;3.05;;;1.17;;
37545;SDS011;23389;52.484;13.572;2023-03-13T11:47:13;5.90;;;1.48;;
37545;SDS011;23389;52.484;13.572;2023-03-13T11:52:37;4.82;;;1.20;;
37545;SDS011;23389;52.484;13.572;2023-03-13T11:57:51;4.00;;;1.33;;
37545;SDS011;23389;52.484;13.572;2023-03-13T12:00:28;4.88;;;1.50;;
37545;SDS011;23389;52.484;13.572;2023-03-13T12:02:55;3.50;;;1.20;;
37545;SDS011;23389;52.484;13.572;2023-03-13T12:05:21;5.32;;;1.20;;
37545;SDS011;23389;52.484;13.572;2023-03-13T12:10:24;3.28;;;1.30;;
37545;SDS011;23389;52.484;13.572;2023-03-13T12:12:53;4.20;;;1.40;;
37545;SDS011;23389;52.484;13.572;2023-03-13T12:15:25;5.32;;;1.40;;
37545;SDS011;23389;52.484;13.572;2023-03-13T12:17:56;6.55;;;1.30;;
37545;SDS011;23389;52.484;13.572;2023-03-13T12:20:24;3.35;;;1.10;;
37545;SDS011;23389;52.484;13.572;2023-03-13T12:25:23;2.88;;;1.17;;
37545;SDS011;23389;52.484;13.572;2023-03-13T12:27:57;4.07;;;1.38;;
37545;SDS011;23389;52.484;13.572;2023-03-13T12:30:32;2.92;;;0.80;;
37545;SDS011;23389;52.484;13.572;2023-03-13T12:33:09;1.88;;;0.80;;
37545;SDS011;23389;52.484;13.572;2023-03-13T12:35:37;3.20;;;1.00;;
37545;SDS011;23389;52.484;13.572;2023-03-13T12:38:13;3.70;;;1.25;;
37545;SDS011;23389;52.484;13.572;2023-03-13T12:40:44;2.03;;;0.90;;
37545;SDS011;23389;52.484;13.572;2023-03-13T12:43:19;2.13;;;0.98;;
37545;SDS011;23389;52.484;13.572;2023-03-13T12:48:36;2.38;;;1.00;;
37545;SDS011;23389;52.484;13.572;2023-03-13T12:56:39;1.77;;;0.63;;
37545;SDS011;23389;52.484;13.572;2023-03-13T12:59:18;1.58;;;0.70;;
37545;SDS011;23389;52.484;13.572;2023-03-13T13:01:44;4.30;;;0.80;;
37545;SDS011;23389;52.484;13.572;2023-03-13T13:04:11;2.10;;;0.70;;
37545;SDS011;23389;52.484;13.572;2023-03-13T13:06:49;2.78;;;0.60;;
37545;SDS011;23389;52.484;13.572;2023-03-13T13:09:20;8.70;;;1.20;;
37545;SDS011;23389;52.484;13.572;2023-03-13T13:11:46;3.92;;;0.82;;
37545;SDS011;23389;52.484;13.572;2023-03-13T13:16:41;4.20;;;0.70;;
37545;SDS011;23389;52.484;13.572;2023-03-13T13:19:49;2.92;;;0.73;;
37545;SDS011;23389;52.484;13.572;2023-03-13T13:24:49;1.80;;;0.70;;
37545;SDS011;23389;52.484;13.572;2023-03-13T13:30:03;6.05;;;0.90;;
37545;SDS011;23389;52.484;13.572;2023-03-13T13:32:29;7.90;;;1.23;;
37545;SDS011;23389;52.484;13.572;2023-03-13T13:34:59;4.70;;;0.90;;
37545;SDS011;23389;52.484;13.572;2023-03-13T13:37:25;3.95;;;1.20;;
37545;SDS011;23389;52.484;13.572;2023-03-13T13:39:52;3.05;;;0.98;;
37545;SDS011;23389;52.484;13.572;2023-03-13T13:44:58;4.22;;;0.95;;
37545;SDS011;23389;52.484;13.572;2023-03-13T13:47:25;3.10;;;1.10;;
37545;SDS011;23389;52.484;13.572;2023-03-13T13:49:54;5.30;;;1.17;;
37545;SDS011;23389;52.484;13.572;2023-03-13T13:52:31;4.97;;;1.20;;
37545;SDS011;23389;52.484;13.572;2023-03-13T13:54:56;3.35;;;1.20;;
37545;SDS011;23389;52.484;13.572;2023-03-13T13:57:22;2.83;;;1.02;;
37545;SDS011;23389;52.484;13.572;2023-03-13T13:59:49;4.82;;;1.20;;
37545;SDS011;23389;52.484;13.572;2023-03-13T14:02:16;2.65;;;1.00;;
37545;SDS011;23389;52.484;13.572;2023-03-13T14:04:58;3.75;;;1.10;;
37545;SDS011;23389;52.484;13.572;2023-03-13T14:07:27;5.40;;;1.15;;
37545;SDS011;23389;52.484;13.572;2023-03-13T14:10:00;4.35;;;1.20;;
37545;SDS011;23389;52.484;13.572;2023-03-13T14:12:27;3.45;;;0.90;;
37545;SDS011;23389;52.484;13.572;2023-03-13T14:15:05;4.63;;;1.20;;
37545;SDS011;23389;52.484;13.572;2023-03-13T14:17:30;3.27;;;1.20;;
37545;SDS011;23389;52.484;13.572;2023-03-13T14:20:01;3.08;;;0.85;;
37545;SDS011;23389;52.484;13.572;2023-03-13T14:22:28;4.70;;;1.30;;
37545;SDS011;23389;52.484;13.572;2023-03-13T14:25:08;2.80;;;1.02;;
37545;SDS011;23389;52.484;13.572;2023-03-13T14:27:33;4.55;;;1.40;;
37545;SDS011;23389;52.484;13.572;2023-03-13T14:29:58;3.42;;;1.00;;
37545;SDS011;23389;52.484;13.572;2023-03-13T14:32:24;3.08;;;0.95;;
37545;SDS011;23389;52.484;13.572;2023-03-13T14:34:49;4.15;;;1.10;;
37545;SDS011;23389;52.484;13.572;2023-03-13T14:37:34;4.00;;;1.00;;
37545;SDS011;23389;52.484;13.572;2023-03-13T14:40:06;3.53;;;1.20;;
37545;SDS011;23389;52.484;13.572;2023-03-13T14:42:39;4.53;;;1.38;;
37545;SDS011;23389;52.484;13.572;2023-03-13T14:45:13;4.38;;;1.20;;
37545;SDS011;23389;52.484;13.572;2023-03-13T14:47:39;2.58;;;1.17;;
37545;SDS011;23389;52.484;13.572;2023-03-13T14:50:08;5.90;;;1.17;;
37545;SDS011;23389;52.484;13.572;2023-03-13T14:52:35;2.63;;;1.15;;
37545;SDS011;23389;52.484;13.572;2023-03-13T14:55:02;3.05;;;1.08;;
37545;SDS011;23389;52.484;13.572;2023-03-13T14:57:30;3.83;;;1.20;;
37545;SDS011;23389;52.484;13.572;2023-03-13T15:02:40;5.00;;;1.10;;
37545;SDS011;23389;52.484;13.572;2023-03-13T15:05:28;3.13;;;1.00;;
37545;SDS011;23389;52.484;13.572;2023-03-13T15:07:52;3.67;;;1.50;;
37545;SDS011;23389;52.484;13.572;2023-03-13T15:10:19;4.47;;;1.20;;
37545;SDS011;23389;52.484;13.572;2023-03-13T15:12:44;4.60;;;1.58;;
37545;SDS011;23389;52.484;13.572;2023-03-13T15:15:10;5.33;;;1.20;;
37545;SDS011;23389;52.484;13.572;2023-03-13T15:17:35;2.88;;;0.90;;